Terminal Aerodrome Forecast
Issued by NWS Miami, FL

Home | Current Version | Previous Version | Text Only | Print | Product List | Glossary On
Versions: 1 2 3 4 5 6 7 8 9 10 11 12 13 14 15 16 17 18 19 20 21 22 23 24 25 26 27 28 29 30 31 32 33 34 35 36 37 38 39 40 41 42 43 44 45 46 47 48 49 50
000
FTUS42 KMFL 220854 AAA
TAFPBI
TAF AMD
KPBI 220854Z 2209/2306 VRB03KT P6SM FEW030 FEW250
     FM221500 14008KT P6SM VCTS SCT035CB SCT060 SCT250
     FM221700 16009KT P6SM VCTS SCT025CB BKN050 BKN250 PROB30
      2218/2222 VRB15G25KT 3SM TSRA BKN025CB
     FM230000 VRB05KT P6SM SCT030 BKN250=

USA.gov is the U.S. government's official web portal to all federal, state and local government web resources and services.